createdAt,value
2019-02-05T00:00:26.858Z,16.10
2019-02-05T00:05:33.559Z,19.67
2019-02-05T00:10:38.186Z,18.70
2019-02-05T00:15:42.851Z,17.00
2019-02-05T00:20:47.570Z,16.50
2019-02-05T00:25:52.163Z,78.30
2019-02-05T00:30:56.752Z,17.50
2019-02-05T00:36:01.492Z,16.03
2019-02-05T00:41:06.341Z,15.40
2019-02-05T00:46:11.082Z,15.60
2019-02-05T00:51:15.827Z,18.00
2019-02-05T00:56:20.455Z,16.03
2019-02-05T01:01:25.104Z,15.23
2019-02-05T01:06:29.952Z,15.20
2019-02-05T01:11:34.798Z,14.60
2019-02-05T01:16:39.845Z,14.83
2019-02-05T01:21:44.589Z,15.30
2019-02-05T01:26:49.333Z,21.30
2019-02-05T01:31:54.075Z,17.50
2019-02-05T01:36:58.818Z,18.40
2019-02-05T01:42:03.563Z,16.83
2019-02-05T01:47:08.207Z,18.90
2019-02-05T01:52:13.356Z,21.77
2019-02-05T01:57:18.202Z,19.33
2019-02-05T02:02:22.766Z,18.87
2019-02-05T02:07:27.387Z,24.33
2019-02-05T02:12:32.122Z,27.00
2019-02-05T02:17:36.872Z,19.40
2019-02-05T02:22:41.507Z,18.10
2019-02-05T02:27:46.184Z,15.67
2019-02-05T02:32:50.997Z,14.30
2019-02-05T02:37:55.740Z,16.50
2019-02-05T02:43:00.382Z,16.57
2019-02-05T02:48:05.121Z,13.63
2019-02-05T02:53:09.867Z,14.93
2019-02-05T02:58:14.497Z,15.93
2019-02-05T03:03:19.247Z,13.30
2019-02-05T03:08:23.880Z,14.50
2019-02-05T03:13:28.632Z,17.17
2019-02-05T03:18:33.273Z,16.53
2019-02-05T03:23:38.119Z,12.60
2019-02-05T03:28:42.756Z,13.07
2019-02-05T03:33:47.399Z,12.57
2019-02-05T03:38:51.959Z,12.53
2019-02-05T03:43:56.576Z,13.03
2019-02-05T03:49:01.219Z,13.53
2019-02-05T03:54:20.700Z,12.87
2019-02-05T03:59:50.028Z,12.80
2019-02-05T04:05:07.059Z,12.07
2019-02-05T04:10:36.379Z,11.83
2019-02-05T04:15:55.967Z,12.47
2019-02-05T04:21:15.869Z,11.73
2019-02-05T04:26:26.539Z,14.73
2019-02-05T04:31:52.628Z,14.97
2019-02-05T04:37:12.583Z,14.90
2019-02-05T04:42:34.644Z,13.17
2019-02-05T04:48:00.799Z,13.13
2019-02-05T04:53:27.196Z,12.83
2019-02-05T04:58:54.304Z,12.37
2019-02-05T05:04:17.496Z,14.63
2019-02-05T05:09:40.352Z,13.67
2019-02-05T05:14:44.904Z,14.13
2019-02-05T05:19:49.653Z,13.17
2019-02-05T05:24:57.208Z,13.97
2019-02-05T05:30:06.425Z,15.43
2019-02-05T05:35:19.809Z,14.30
2019-02-05T05:40:30.043Z,13.80
2019-02-05T05:45:37.098Z,14.87
2019-02-05T05:50:41.953Z,16.10
2019-02-05T05:55:46.579Z,13.40
2019-02-05T06:00:51.326Z,16.63
2019-02-05T06:05:56.070Z,17.17
2019-02-05T06:11:00.813Z,20.80
2019-02-05T06:16:05.750Z,16.50
2019-02-05T06:21:13.483Z,15.47
2019-02-05T06:26:20.041Z,16.17
2019-02-05T06:31:24.701Z,16.40
2019-02-05T06:36:30.571Z,14.13
2019-02-05T06:41:36.954Z,14.30
2019-02-05T06:46:42.117Z,12.93
2019-02-05T06:51:46.955Z,13.57
2019-02-05T06:56:51.691Z,13.13
2019-02-05T07:21:51.521Z,19.47
2019-02-05T07:26:56.567Z,15.23
2019-02-05T07:32:01.313Z,13.87
2019-02-05T07:37:06.260Z,13.03
2019-02-05T07:42:12.026Z,12.77
2019-02-05T07:47:16.764Z,12.67
2019-02-05T07:52:23.217Z,12.60
2019-02-05T07:57:28.301Z,14.63
2019-02-05T08:02:32.946Z,16.67
2019-02-05T08:07:37.686Z,17.80
2019-02-05T08:12:42.322Z,17.43
2019-02-05T08:17:47.274Z,13.60
2019-02-05T08:22:51.915Z,16.37
2019-02-05T08:27:59.526Z,14.73
2019-02-05T08:33:04.270Z,19.40
2019-02-05T08:38:08.926Z,18.67
2019-02-05T08:43:13.658Z,13.83
2019-02-05T08:48:18.222Z,14.77
2019-02-05T08:53:22.936Z,16.40
2019-02-05T08:58:31.055Z,15.57
2019-02-05T09:03:37.238Z,17.93
2019-02-05T09:08:41.979Z,17.00
2019-02-05T09:13:46.822Z,13.77
2019-02-05T09:18:51.688Z,12.50
2019-02-05T09:23:56.619Z,13.43
2019-02-05T09:29:01.254Z,14.43
2019-02-05T09:34:06.000Z,40.23
2019-02-05T09:39:10.642Z,13.63
2019-02-05T09:44:16.348Z,15.70
2019-02-05T09:49:21.360Z,16.60
2019-02-05T09:54:26.246Z,16.93
2019-02-05T09:59:30.947Z,22.33
2019-02-05T10:04:35.492Z,24.90
2019-02-05T10:09:41.659Z,30.83
2019-02-05T10:14:46.584Z,19.60
2019-02-05T10:19:51.349Z,15.67
2019-02-05T10:24:56.091Z,15.83
2019-02-05T10:30:00.841Z,14.50
2019-02-05T10:35:08.057Z,17.33
2019-02-05T10:40:14.009Z,17.47
2019-02-05T10:45:23.669Z,17.47
2019-02-05T10:50:28.411Z,16.13
2019-02-05T10:55:33.257Z,14.17
2019-02-05T11:00:37.968Z,16.47
2019-02-05T11:05:43.057Z,16.83
2019-02-05T11:10:47.795Z,19.00
2019-02-05T11:15:52.534Z,27.63
2019-02-05T11:20:58.899Z,14.03
2019-02-05T11:26:03.725Z,19.67
2019-02-05T11:31:08.919Z,19.23
2019-02-05T11:36:13.662Z,17.53
2019-02-05T11:41:18.399Z,13.87
2019-02-05T11:46:23.146Z,28.77
2019-02-05T11:51:27.990Z,13.53
2019-02-05T11:56:32.741Z,15.60
2019-02-05T12:01:39.270Z,12.37
2019-02-05T12:06:43.958Z,15.57
2019-02-05T12:11:48.705Z,16.13
2019-02-05T12:16:54.528Z,13.23
2019-02-05T12:21:59.317Z,16.30
2019-02-05T12:27:04.060Z,17.57
2019-02-05T12:32:08.910Z,13.17
2019-02-05T12:37:13.956Z,13.53
2019-02-05T12:42:18.703Z,13.13
2019-02-05T12:47:23.548Z,13.87
2019-02-05T12:52:29.922Z,14.47
2019-02-05T12:57:34.758Z,14.33
2019-02-05T13:02:39.721Z,15.53
2019-02-05T13:07:44.462Z,15.27
2019-02-05T13:12:49.309Z,14.63
2019-02-05T13:17:54.056Z,13.93
2019-02-05T13:22:58.798Z,14.57
2019-02-05T13:43:45.713Z,14.57
2019-02-05T13:48:50.453Z,19.40
2019-02-05T13:53:55.198Z,16.67
2019-02-05T13:58:59.953Z,18.67
2019-02-05T14:04:04.997Z,17.50
2019-02-05T14:09:11.712Z,19.30
2019-02-05T14:14:16.269Z,21.83
2019-02-05T14:19:21.577Z,23.50
2019-02-05T14:24:26.319Z,21.40
2019-02-05T14:29:30.961Z,24.73
2019-02-05T14:34:36.113Z,17.20
2019-02-05T14:39:40.688Z,17.57
2019-02-05T14:44:45.496Z,20.90
2019-02-05T14:49:50.552Z,39.13
2019-02-05T14:54:55.183Z,23.07
2019-02-05T14:59:59.747Z,19.73
2019-02-05T15:05:07.705Z,21.93
2019-02-05T15:10:14.807Z,22.27
2019-02-05T15:15:27.985Z,25.57
2019-02-05T15:20:41.243Z,23.80
2019-02-05T15:25:46.380Z,20.83
2019-02-05T15:30:51.067Z,18.53
2019-02-05T15:35:57.610Z,31.47
2019-02-05T15:41:02.857Z,22.70
2019-02-05T15:46:07.604Z,22.37
2019-02-05T15:51:12.445Z,24.20
2019-02-05T15:56:17.326Z,28.40
2019-02-05T16:01:22.251Z,19.70
2019-02-05T16:06:28.220Z,30.10
2019-02-05T16:11:32.998Z,27.67
2019-02-05T16:16:37.925Z,28.03
2019-02-05T16:21:43.006Z,36.73
2019-02-05T16:26:48.885Z,27.87
2019-02-05T16:31:53.772Z,23.17
2019-02-05T16:36:58.428Z,21.50
2019-02-05T16:42:03.484Z,33.27
2019-02-05T16:47:08.211Z,25.53
2019-02-05T16:52:13.056Z,27.17
2019-02-05T16:57:18.002Z,28.67
2019-02-05T17:02:28.837Z,33.00
2019-02-05T17:07:29.231Z,30.93
2019-02-05T17:12:33.968Z,34.63
2019-02-05T17:17:39.218Z,35.93
2019-02-05T17:22:45.066Z,41.63
2019-02-05T17:27:49.832Z,47.57
2019-02-05T17:32:54.761Z,43.93
2019-02-05T17:37:59.735Z,54.73
2019-02-05T17:43:04.649Z,43.00
2019-02-05T17:48:15.268Z,36.57
2019-02-05T17:53:24.879Z,34.33
2019-02-05T17:58:29.637Z,31.53
2019-02-05T18:03:34.322Z,37.97
2019-02-05T18:08:39.039Z,27.73
2019-02-05T18:13:43.891Z,28.83
2019-02-05T18:18:50.679Z,34.13
2019-02-05T18:23:55.528Z,31.03
2019-02-05T18:29:00.269Z,34.97
2019-02-05T18:34:05.222Z,30.27
2019-02-05T18:39:09.907Z,33.37
2019-02-05T18:44:15.960Z,37.10
2019-02-05T18:49:20.685Z,28.47
2019-02-05T18:54:26.270Z,40.77
2019-02-05T18:59:30.983Z,50.27
2019-02-05T19:04:35.824Z,32.80
2019-02-05T19:09:40.566Z,32.50
2019-02-05T19:14:45.681Z,49.87
2019-02-05T19:19:51.118Z,35.07
2019-02-05T19:24:57.355Z,38.37
2019-02-05T19:30:02.207Z,30.83
2019-02-05T19:35:08.492Z,29.97
2019-02-05T19:40:13.738Z,36.90
2019-02-05T19:45:28.926Z,31.67
2019-02-05T19:50:33.976Z,23.90
2019-02-05T19:55:38.875Z,28.47
2019-02-05T20:00:43.563Z,25.60
2019-02-05T20:05:48.715Z,21.83
2019-02-05T20:10:53.463Z,27.97
2019-02-05T20:15:59.325Z,17.10
2019-02-05T20:21:04.184Z,16.23
2019-02-05T20:26:09.126Z,19.07
2019-02-05T20:31:14.731Z,12.40
2019-02-05T20:36:19.602Z,13.73
2019-02-05T20:41:24.445Z,15.60
2019-02-05T20:46:29.833Z,15.90
2019-02-05T20:51:35.291Z,20.00
2019-02-05T20:56:40.237Z,20.90
2019-02-05T21:01:44.886Z,22.23
2019-02-05T21:06:49.621Z,18.07
2019-02-05T21:11:55.899Z,14.60
2019-02-05T21:17:00.750Z,17.23
2019-02-05T21:22:08.839Z,15.60
2019-02-05T21:27:12.221Z,17.83
2019-02-05T21:32:16.825Z,19.67
2019-02-05T21:37:21.460Z,14.27
2019-02-05T21:42:26.197Z,15.23
2019-02-05T21:47:31.250Z,14.57
2019-02-05T21:52:36.031Z,15.23
2019-02-05T21:57:40.740Z,15.37
2019-02-05T22:02:45.503Z,15.63
2019-02-05T22:07:50.327Z,14.03
2019-02-05T22:12:55.372Z,13.20
2019-02-05T22:18:00.231Z,12.60
2019-02-05T22:23:06.501Z,11.87
2019-02-05T22:28:11.241Z,11.10
2019-02-05T22:33:16.092Z,14.67
2019-02-05T22:38:20.831Z,14.30
2019-02-05T22:43:26.433Z,11.90
2019-02-05T22:48:31.237Z,13.27
2019-02-05T22:53:35.823Z,14.03
2019-02-05T22:58:40.426Z,11.60
2019-02-05T23:03:48.125Z,11.37
2019-02-05T23:08:54.106Z,14.50
2019-02-05T23:13:59.354Z,11.87
2019-02-05T23:19:04.351Z,15.60
2019-02-05T23:24:09.151Z,10.13
2019-02-05T23:29:15.120Z,9.07
2019-02-05T23:34:19.971Z,11.73
2019-02-05T23:39:24.502Z,15.20
2019-02-05T23:44:29.248Z,9.53
2019-02-05T23:49:34.296Z,8.70
2019-02-05T23:54:38.935Z,7.87
2019-02-05T23:59:43.685Z,6.77
